createdAt,value
2022-08-28T00:00:21.401Z,10.02
2022-08-28T00:02:49.236Z,12.60
2022-08-28T00:05:19.040Z,12.20
2022-08-28T00:07:47.962Z,8.65
2022-08-28T00:10:17.391Z,9.75
2022-08-28T00:12:47.025Z,9.05
2022-08-28T00:15:19.706Z,11.30
2022-08-28T00:17:47.454Z,9.93
2022-08-28T00:20:17.541Z,9.77
2022-08-28T00:22:46.684Z,10.98
2022-08-28T00:25:15.831Z,8.73
2022-08-28T00:27:55.253Z,10.30
2022-08-28T00:30:29.503Z,9.98
2022-08-28T00:32:59.802Z,11.40
2022-08-28T00:35:27.654Z,11.32
2022-08-28T00:37:56.692Z,9.30
2022-08-28T00:40:33.093Z,12.43
2022-08-28T00:43:02.054Z,9.70
2022-08-28T00:45:37.333Z,9.70
2022-08-28T00:48:07.141Z,13.45
2022-08-28T00:51:00.325Z,12.75
2022-08-28T00:53:29.943Z,11.00
2022-08-28T00:56:02.093Z,9.65
2022-08-28T00:58:32.406Z,9.80
2022-08-28T01:01:01.698Z,11.98
2022-08-28T01:03:29.388Z,12.73
2022-08-28T01:05:57.132Z,12.32
2022-08-28T01:08:24.751Z,10.02
2022-08-28T01:11:02.114Z,11.50
2022-08-28T01:13:30.486Z,12.32
2022-08-28T01:15:58.828Z,9.75
2022-08-28T01:18:30.477Z,10.27
2022-08-28T01:21:06.450Z,15.00
2022-08-28T01:23:58.069Z,10.95
2022-08-28T01:26:26.537Z,12.02
2022-08-28T01:28:54.689Z,11.05
2022-08-28T01:31:22.623Z,9.77
2022-08-28T01:33:50.241Z,11.90
2022-08-28T01:36:19.554Z,13.73
2022-08-28T01:38:50.877Z,13.13
2022-08-28T01:41:20.827Z,13.98
2022-08-28T01:43:48.855Z,16.27
2022-08-28T01:46:17.133Z,17.27
2022-08-28T01:48:45.735Z,15.85
2022-08-28T01:51:14.803Z,14.38
2022-08-28T01:53:43.344Z,15.15
2022-08-28T01:56:17.074Z,15.68
2022-08-28T01:58:48.072Z,17.85
2022-08-28T02:01:18.292Z,15.30
2022-08-28T02:03:46.574Z,21.00
2022-08-28T02:06:15.605Z,21.45
2022-08-28T02:08:43.558Z,19.90
2022-08-28T02:11:12.309Z,20.08
2022-08-28T02:13:41.716Z,20.23
2022-08-28T02:16:11.646Z,16.83
2022-08-28T02:18:39.815Z,16.58
2022-08-28T02:21:08.580Z,16.27
2022-08-28T02:23:38.569Z,16.75
2022-08-28T02:26:06.543Z,14.65
2022-08-28T02:28:34.260Z,16.85
2022-08-28T02:31:01.909Z,17.30
2022-08-28T02:33:30.872Z,19.70
2022-08-28T02:35:58.819Z,18.42
2022-08-28T02:38:26.787Z,18.40
2022-08-28T02:40:54.428Z,16.75
2022-08-28T02:43:22.021Z,18.38
2022-08-28T02:45:49.626Z,15.68
2022-08-28T02:48:17.693Z,19.38
2022-08-28T02:50:47.135Z,20.10
2022-08-28T02:53:15.003Z,21.40
2022-08-28T02:55:42.699Z,18.90
2022-08-28T02:58:10.461Z,16.42
2022-08-28T03:00:38.128Z,19.48
2022-08-28T03:03:05.755Z,17.38
2022-08-28T03:05:34.466Z,17.95
2022-08-28T03:08:03.763Z,23.27
2022-08-28T03:10:31.731Z,21.55
2022-08-28T03:12:59.340Z,20.13
2022-08-28T03:15:26.898Z,21.33
2022-08-28T03:17:54.494Z,20.40
2022-08-28T03:20:22.152Z,18.27
2022-08-28T03:23:07.224Z,20.50
2022-08-28T03:25:36.368Z,19.65
2022-08-28T03:28:04.671Z,22.60
2022-08-28T03:30:32.435Z,19.60
2022-08-28T03:33:01.280Z,23.77
2022-08-28T03:35:28.881Z,20.83
2022-08-28T03:37:56.472Z,20.80
2022-08-28T03:40:24.625Z,19.13
2022-08-28T03:42:53.841Z,18.23
2022-08-28T03:45:21.967Z,19.73
2022-08-28T03:47:49.883Z,16.92
2022-08-28T03:50:19.662Z,18.80
2022-08-28T03:52:47.729Z,22.70
2022-08-28T03:55:15.430Z,20.23
2022-08-28T03:57:43.014Z,19.75
2022-08-28T04:00:14.368Z,19.83
2022-08-28T04:02:42.607Z,21.27
2022-08-28T04:05:11.291Z,20.30
2022-08-28T04:07:40.100Z,21.50
2022-08-28T04:10:08.993Z,19.17
2022-08-28T04:12:37.106Z,21.58
2022-08-28T04:15:07.062Z,17.98
2022-08-28T04:17:38.536Z,19.30
2022-08-28T04:20:07.531Z,20.27
2022-08-28T04:22:37.179Z,19.05
2022-08-28T04:25:05.505Z,23.77
2022-08-28T04:27:33.187Z,22.38
2022-08-28T04:30:00.985Z,19.00
2022-08-28T04:32:28.601Z,18.05
2022-08-28T04:34:57.508Z,18.90
2022-08-28T04:37:25.090Z,22.70
2022-08-28T04:39:55.889Z,24.00
2022-08-28T04:42:23.636Z,22.88
2022-08-28T04:44:51.619Z,21.80
2022-08-28T04:47:19.166Z,24.63
2022-08-28T04:49:46.828Z,18.95
2022-08-28T04:52:15.809Z,18.38
2022-08-28T04:54:43.420Z,19.55
2022-08-28T04:57:10.988Z,15.88
2022-08-28T04:59:39.124Z,18.52
2022-08-28T05:02:06.795Z,18.92
2022-08-28T05:04:34.550Z,24.08
2022-08-28T05:07:02.168Z,24.42
2022-08-28T05:09:31.858Z,33.65
2022-08-28T05:12:03.667Z,22.33
2022-08-28T05:14:31.357Z,18.55
2022-08-28T05:16:59.062Z,15.88
2022-08-28T05:19:28.431Z,20.17
2022-08-28T05:21:56.165Z,19.85
2022-08-28T05:24:23.827Z,20.05
2022-08-28T05:26:52.790Z,19.83
2022-08-28T05:29:20.968Z,23.25
2022-08-28T05:31:51.202Z,23.25
2022-08-28T05:34:18.881Z,17.27
2022-08-28T05:36:46.585Z,18.90
2022-08-28T05:39:15.056Z,16.65
2022-08-28T05:41:45.269Z,20.23
2022-08-28T05:44:16.215Z,16.85
2022-08-28T05:46:47.621Z,18.90
2022-08-28T05:49:15.806Z,19.27
2022-08-28T05:51:44.136Z,20.30
2022-08-28T05:54:12.990Z,17.58
2022-08-28T05:56:42.071Z,17.52
2022-08-28T05:59:10.918Z,18.05
2022-08-28T06:01:43.627Z,19.02
2022-08-28T06:04:18.228Z,22.23
2022-08-28T06:06:49.812Z,20.80
2022-08-28T06:09:25.313Z,24.85
2022-08-28T06:11:57.026Z,19.25
2022-08-28T06:14:27.218Z,21.70
2022-08-28T06:17:00.567Z,20.45
2022-08-28T06:19:32.366Z,20.02
2022-08-28T06:22:07.599Z,18.48
2022-08-28T06:24:36.043Z,17.60
2022-08-28T06:27:04.827Z,22.25
2022-08-28T06:29:36.194Z,15.20
2022-08-28T06:32:07.315Z,19.65
2022-08-28T06:34:36.783Z,18.17
2022-08-28T06:37:08.435Z,18.17
2022-08-28T06:39:39.861Z,18.88
2022-08-28T06:42:09.013Z,19.90
2022-08-28T06:47:59.921Z,22.08
2022-08-28T06:50:31.167Z,18.38
2022-08-28T06:53:01.850Z,19.98
2022-08-28T06:55:31.604Z,19.98
2022-08-28T06:58:02.835Z,15.40
2022-08-28T07:00:32.709Z,20.20
2022-08-28T07:03:05.425Z,19.33
2022-08-28T07:05:36.715Z,22.20
2022-08-28T07:08:07.530Z,22.00
2022-08-28T07:10:37.348Z,21.13
2022-08-28T07:13:07.080Z,17.02
2022-08-28T07:15:37.017Z,18.70
2022-08-28T07:18:12.806Z,18.58
2022-08-28T07:20:42.839Z,17.77
2022-08-28T07:23:12.154Z,16.13
2022-08-28T07:25:46.834Z,17.90
2022-08-28T07:28:17.288Z,16.63
2022-08-28T07:30:46.899Z,16.10
2022-08-28T07:33:18.009Z,17.77
2022-08-28T07:35:47.899Z,16.83
2022-08-28T07:38:17.503Z,19.40
2022-08-28T07:40:49.528Z,19.08
2022-08-28T07:43:35.681Z,19.67
2022-08-28T07:46:09.508Z,18.63
2022-08-28T07:48:42.742Z,18.55
2022-08-28T07:51:12.750Z,17.95
2022-08-28T07:53:45.172Z,16.50
2022-08-28T07:56:15.002Z,15.05
2022-08-28T07:58:44.766Z,14.82
2022-08-28T08:01:14.604Z,15.88
2022-08-28T08:03:50.504Z,14.55
2022-08-28T08:06:33.229Z,16.10
2022-08-28T08:09:04.016Z,15.80
2022-08-28T08:11:34.924Z,13.23
2022-08-28T08:14:11.452Z,16.73
2022-08-28T08:16:46.512Z,18.65
2022-08-28T08:19:21.314Z,15.00
2022-08-28T08:21:55.958Z,15.20
2022-08-28T08:24:31.358Z,13.65
2022-08-28T08:27:04.598Z,17.92
2022-08-28T08:29:40.446Z,17.10
2022-08-28T08:32:21.677Z,15.25
2022-08-28T08:35:06.168Z,15.43
2022-08-28T08:38:15.786Z,15.57
2022-08-28T08:40:47.818Z,14.98
2022-08-28T08:43:25.455Z,14.18
2022-08-28T08:48:52.425Z,14.13
2022-08-28T08:59:27.315Z,13.55
2022-08-28T09:02:16.010Z,13.45
2022-08-28T09:05:11.211Z,11.32
2022-08-28T09:08:29.145Z,13.68
2022-08-28T09:14:26.988Z,12.63
2022-08-28T09:31:08.331Z,13.07
2022-08-28T09:34:11.604Z,18.98
2022-08-28T09:39:48.699Z,14.93
2022-08-28T09:45:18.598Z,10.77
2022-08-28T09:47:49.655Z,12.18
2022-08-28T09:50:27.447Z,9.13
2022-08-28T09:52:57.410Z,10.18
2022-08-28T09:55:33.925Z,9.82
2022-08-28T09:58:04.357Z,9.68
2022-08-28T10:00:36.642Z,10.20
2022-08-28T10:03:11.062Z,10.65
2022-08-28T10:05:44.801Z,9.38
2022-08-28T10:08:25.580Z,9.40
2022-08-28T10:10:59.701Z,7.82
2022-08-28T10:13:32.466Z,7.80
2022-08-28T10:16:19.827Z,8.43
2022-08-28T10:18:57.294Z,10.95
2022-08-28T10:21:30.583Z,7.72
2022-08-28T10:24:15.121Z,8.05
2022-08-28T10:27:00.244Z,8.13
2022-08-28T10:29:42.337Z,8.38
2022-08-28T10:32:23.559Z,8.05
2022-08-28T10:35:03.979Z,7.15
2022-08-28T10:37:43.298Z,7.80
2022-08-28T10:40:17.284Z,6.82
2022-08-28T10:42:51.149Z,6.60
2022-08-28T10:45:24.697Z,9.25
2022-08-28T10:47:58.628Z,9.23
2022-08-28T10:50:30.390Z,8.98
2022-08-28T10:53:03.614Z,9.52
2022-08-28T10:55:39.044Z,11.55
2022-08-28T10:58:23.794Z,8.35
2022-08-28T11:00:56.502Z,6.40
2022-08-28T11:03:34.701Z,9.30
2022-08-28T11:06:11.254Z,10.25
2022-08-28T11:08:40.560Z,5.75
2022-08-28T11:11:14.781Z,5.95
2022-08-28T11:13:53.575Z,7.78
2022-08-28T11:16:25.389Z,5.97
2022-08-28T11:19:20.553Z,6.57
2022-08-28T11:21:53.099Z,5.63
2022-08-28T11:24:44.385Z,5.60
2022-08-28T11:27:23.763Z,5.45
2022-08-28T11:30:00.118Z,5.97
2022-08-28T11:32:38.894Z,7.68
2022-08-28T11:35:46.449Z,6.78
2022-08-28T11:38:52.824Z,9.57
2022-08-28T11:41:22.775Z,7.93
2022-08-28T11:43:53.404Z,6.32
2022-08-28T11:46:32.811Z,6.13
2022-08-28T11:49:03.739Z,7.85
2022-08-28T11:51:57.321Z,6.80
2022-08-28T11:54:39.275Z,6.88
2022-08-28T11:57:11.619Z,8.63
2022-08-28T12:00:08.221Z,5.43
2022-08-28T12:02:51.814Z,8.00
2022-08-28T12:05:53.981Z,5.93
2022-08-28T12:09:11.599Z,6.45
2022-08-28T12:11:51.510Z,6.85
2022-08-28T12:15:07.432Z,5.97
2022-08-28T12:17:50.085Z,9.07
2022-08-28T12:20:25.080Z,5.30
2022-08-28T12:22:56.533Z,4.88
2022-08-28T12:25:31.995Z,8.25
2022-08-28T12:28:04.718Z,6.65
2022-08-28T12:30:42.033Z,6.25
2022-08-28T12:33:16.966Z,4.35
2022-08-28T12:35:44.631Z,6.45
2022-08-28T12:38:20.340Z,4.78
2022-08-28T12:40:54.276Z,23.23
2022-08-28T12:43:30.821Z,6.50
2022-08-28T12:46:00.530Z,4.25
2022-08-28T12:48:32.371Z,3.90
2022-08-28T12:51:04.258Z,5.43
2022-08-28T12:53:44.916Z,4.82
2022-08-28T12:56:14.459Z,4.70
2022-08-28T12:58:43.783Z,4.63
2022-08-28T13:01:15.912Z,6.15
2022-08-28T13:03:46.212Z,7.80
2022-08-28T13:06:14.520Z,4.97
2022-08-28T13:08:43.496Z,6.75
2022-08-28T13:11:11.223Z,5.05
2022-08-28T13:13:47.127Z,4.53
2022-08-28T13:16:35.830Z,4.90
2022-08-28T13:19:26.180Z,5.78
2022-08-28T13:22:00.274Z,5.35
2022-08-28T13:24:41.178Z,5.75
2022-08-28T13:27:22.106Z,5.80
2022-08-28T13:29:59.826Z,6.07
2022-08-28T13:32:30.217Z,5.20
2022-08-28T13:35:10.194Z,4.72
2022-08-28T13:37:47.902Z,4.13
2022-08-28T13:40:46.360Z,6.18
2022-08-28T13:43:11.149Z,4.80
2022-08-28T13:45:42.964Z,5.57
2022-08-28T13:48:12.069Z,7.05
2022-08-28T13:50:47.283Z,4.78
2022-08-28T13:53:16.602Z,5.45
2022-08-28T13:55:44.309Z,6.07
2022-08-28T13:58:13.820Z,7.35
2022-08-28T14:00:44.982Z,5.97
2022-08-28T14:03:30.813Z,4.97
2022-08-28T14:05:59.851Z,7.50
2022-08-28T14:08:27.479Z,5.65
2022-08-28T14:10:55.344Z,4.97
2022-08-28T14:13:27.472Z,6.00
2022-08-28T14:18:22.904Z,6.28
2022-08-28T14:20:50.528Z,5.35
2022-08-28T14:23:19.579Z,5.15
2022-08-28T14:25:49.102Z,5.18
2022-08-28T14:28:17.837Z,5.15
2022-08-28T14:30:51.965Z,4.13
2022-08-28T14:33:25.761Z,6.10
2022-08-28T14:35:53.443Z,3.80
2022-08-28T14:38:22.418Z,4.32
2022-08-28T14:40:53.070Z,3.53
2022-08-28T14:43:22.513Z,5.85
2022-08-28T14:45:51.938Z,5.85
2022-08-28T14:48:20.050Z,8.65
2022-08-28T14:50:50.318Z,14.20
2022-08-28T14:53:18.017Z,6.28
2022-08-28T14:55:49.316Z,4.22
2022-08-28T14:58:18.519Z,4.22
2022-08-28T15:00:49.056Z,4.40
2022-08-28T15:03:18.484Z,4.47
2022-08-28T15:05:46.800Z,7.32
2022-08-28T15:08:16.769Z,5.28
2022-08-28T15:10:45.818Z,4.70
2022-08-28T15:13:15.353Z,5.13
2022-08-28T15:15:43.149Z,4.15
2022-08-28T15:18:12.452Z,6.07
2022-08-28T15:20:41.999Z,4.85
2022-08-28T15:23:10.925Z,5.53
2022-08-28T15:25:39.117Z,4.07
2022-08-28T15:28:07.776Z,5.85
2022-08-28T15:30:37.638Z,4.80
2022-08-28T15:33:06.483Z,3.90
2022-08-28T15:35:34.503Z,4.85
2022-08-28T15:38:02.130Z,7.20
2022-08-28T15:43:47.669Z,5.53
2022-08-28T16:08:11.345Z,7.38
2022-08-28T16:11:32.285Z,4.88
2022-08-28T16:58:57.852Z,5.35
2022-08-28T17:01:27.929Z,5.60
2022-08-28T17:03:58.325Z,7.22
2022-08-28T17:06:31.581Z,4.38
2022-08-28T17:09:01.774Z,4.88
2022-08-28T17:11:32.443Z,7.18
2022-08-28T17:14:04.025Z,5.28
2022-08-28T17:16:33.527Z,4.40
2022-08-28T17:19:02.943Z,4.75
2022-08-28T17:21:49.048Z,5.03
2022-08-28T17:24:19.019Z,4.22
2022-08-28T17:26:49.700Z,6.00
2022-08-28T17:29:22.141Z,4.88
2022-08-28T17:31:51.350Z,6.78
2022-08-28T17:34:21.334Z,5.78
2022-08-28T17:36:53.387Z,6.03
2022-08-28T17:39:23.245Z,6.40
2022-08-28T17:41:53.785Z,5.10
2022-08-28T17:44:23.869Z,4.65
2022-08-28T17:46:53.550Z,5.93
2022-08-28T17:49:23.824Z,5.00
2022-08-28T17:51:53.935Z,5.35
2022-08-28T17:54:25.575Z,9.68
2022-08-28T17:56:56.239Z,4.85
2022-08-28T17:59:29.258Z,4.55
2022-08-28T18:01:59.425Z,5.90
2022-08-28T18:04:29.837Z,7.60
2022-08-28T18:07:02.241Z,9.02
2022-08-28T18:09:31.950Z,8.88
2022-08-28T18:12:02.631Z,4.30
2022-08-28T18:14:35.863Z,9.18
2022-08-28T18:17:07.059Z,8.80
2022-08-28T18:19:40.489Z,5.03
2022-08-28T18:22:11.543Z,8.13
2022-08-28T18:24:41.898Z,6.80
2022-08-28T18:27:12.298Z,4.85
2022-08-28T18:29:43.165Z,7.68
2022-08-28T18:32:14.467Z,5.93
2022-08-28T18:34:44.267Z,7.13
2022-08-28T18:37:14.642Z,6.40
2022-08-28T18:39:45.580Z,6.05
2022-08-28T18:42:15.450Z,6.57
2022-08-28T18:44:46.506Z,5.15
2022-08-28T18:47:16.239Z,6.05
2022-08-28T18:49:45.724Z,6.13
2022-08-28T18:52:15.906Z,5.07
2022-08-28T18:54:45.374Z,5.80
2022-08-28T18:57:15.770Z,7.65
2022-08-28T18:59:46.442Z,5.50
2022-08-28T19:02:16.382Z,6.00
2022-08-28T19:04:47.298Z,5.57
2022-08-28T19:07:16.822Z,6.93
2022-08-28T19:09:46.265Z,10.75
2022-08-28T19:12:15.507Z,6.38
2022-08-28T19:14:46.456Z,5.45
2022-08-28T19:17:20.917Z,6.72
2022-08-28T19:19:50.913Z,5.10
2022-08-28T19:22:21.664Z,4.95
2022-08-28T19:24:51.060Z,6.15
2022-08-28T19:27:20.725Z,8.05
2022-08-28T19:29:51.734Z,7.38
2022-08-28T19:32:24.126Z,6.65
2022-08-28T19:34:55.299Z,7.35
2022-08-28T19:37:23.509Z,7.25
2022-08-28T19:39:56.214Z,8.60
2022-08-28T19:42:25.252Z,5.80
2022-08-28T19:44:59.692Z,6.75
2022-08-28T19:47:27.999Z,11.55
2022-08-28T19:50:03.297Z,6.95
2022-08-28T19:52:31.095Z,7.25
2022-08-28T19:55:02.155Z,7.22
2022-08-28T19:57:29.821Z,8.77
2022-08-28T20:00:00.431Z,7.75
2022-08-28T20:02:28.738Z,6.82
2022-08-28T20:04:58.301Z,7.40
2022-08-28T20:07:27.484Z,10.00
2022-08-28T20:09:56.436Z,7.07
2022-08-28T20:12:25.510Z,7.03
2022-08-28T20:14:54.876Z,10.52
2022-08-28T20:17:25.599Z,6.65
2022-08-28T20:19:55.123Z,7.38
2022-08-28T20:22:23.837Z,6.45
2022-08-28T20:24:53.054Z,6.30
2022-08-28T20:27:22.510Z,7.45
2022-08-28T20:29:51.406Z,9.18
2022-08-28T20:32:20.595Z,7.00
2022-08-28T20:34:51.638Z,10.02
2022-08-28T20:37:20.454Z,7.72
2022-08-28T20:39:49.303Z,6.97
2022-08-28T20:42:18.285Z,6.97
2022-08-28T20:44:47.369Z,7.78
2022-08-28T20:47:16.527Z,10.18
2022-08-28T20:49:45.354Z,10.25
2022-08-28T20:52:16.010Z,7.00
2022-08-28T20:54:45.405Z,7.47
2022-08-28T20:57:19.009Z,10.20
2022-08-28T20:59:48.304Z,7.65
2022-08-28T21:02:20.707Z,7.15
2022-08-28T21:07:22.356Z,7.03
2022-08-28T21:10:05.374Z,8.18
2022-08-28T21:12:36.591Z,8.75
2022-08-28T21:15:06.349Z,6.97
2022-08-28T21:17:35.069Z,6.47
2022-08-28T21:20:08.815Z,8.40
2022-08-28T21:22:40.089Z,6.75
2022-08-28T21:25:11.075Z,7.35
2022-08-28T21:27:40.254Z,6.85
2022-08-28T21:30:10.585Z,6.05
2022-08-28T21:32:39.650Z,13.32
2022-08-28T21:35:12.802Z,7.75
2022-08-28T21:37:44.066Z,8.70
2022-08-28T21:40:15.280Z,7.00
2022-08-28T21:42:44.725Z,8.23
2022-08-28T21:45:14.034Z,8.05
2022-08-28T21:47:43.498Z,6.75
2022-08-28T21:50:13.168Z,8.50
2022-08-28T21:52:43.560Z,7.30
2022-08-28T21:55:16.096Z,10.30
2022-08-28T21:57:44.903Z,8.57
2022-08-28T22:00:18.196Z,8.52
2022-08-28T22:02:49.282Z,7.13
2022-08-28T22:05:18.785Z,8.15
2022-08-28T22:07:49.174Z,7.45
2022-08-28T22:10:18.490Z,8.32
2022-08-28T22:12:47.431Z,7.90
2022-08-28T22:15:16.399Z,9.25
2022-08-28T22:17:45.231Z,12.10
2022-08-28T22:20:14.043Z,7.40
2022-08-28T22:22:59.539Z,7.63
2022-08-28T22:25:30.029Z,8.50
2022-08-28T22:27:58.922Z,8.90
2022-08-28T22:30:27.673Z,11.65
2022-08-28T22:32:56.467Z,7.32
2022-08-28T22:35:25.225Z,9.52
2022-08-28T22:37:53.853Z,9.00
2022-08-28T22:40:23.320Z,10.20
2022-08-28T22:42:53.481Z,9.15
2022-08-28T22:45:22.831Z,7.72
2022-08-28T22:47:51.524Z,9.75
2022-08-28T22:50:20.559Z,8.75
2022-08-28T22:52:50.522Z,10.45
2022-08-28T22:55:21.188Z,8.25
2022-08-28T22:57:49.963Z,8.70
2022-08-28T23:00:24.816Z,7.20
2022-08-28T23:02:53.628Z,9.27
2022-08-28T23:05:22.502Z,8.15
2022-08-28T23:07:50.960Z,10.55
2022-08-28T23:10:18.841Z,9.27
2022-08-28T23:12:46.481Z,10.38
2022-08-28T23:15:17.149Z,8.52
2022-08-28T23:17:46.207Z,8.68
2022-08-28T23:20:17.328Z,8.88
2022-08-28T23:22:45.541Z,9.68
2022-08-28T23:25:16.495Z,11.27
2022-08-28T23:27:44.212Z,8.95
2022-08-28T23:30:13.597Z,12.27
2022-08-28T23:32:41.460Z,11.95
2022-08-28T23:35:12.818Z,11.90
2022-08-28T23:37:41.117Z,11.63
2022-08-28T23:40:12.629Z,11.02
2022-08-28T23:42:40.676Z,13.00
2022-08-28T23:45:10.511Z,10.65
2022-08-28T23:47:40.409Z,10.43
2022-08-28T23:50:12.866Z,10.90
2022-08-28T23:52:40.505Z,10.02
2022-08-28T23:55:09.199Z,14.68
2022-08-28T23:57:37.622Z,8.82
